createdAt,value
2023-04-28T00:00:38.171Z,1014.53
2023-04-28T00:01:37.983Z,1014.55
2023-04-28T00:02:38.096Z,1014.52
2023-04-28T00:03:38.107Z,1014.58
2023-04-28T00:04:38.174Z,1014.55
2023-04-28T00:05:38.030Z,1014.61
2023-04-28T00:06:37.922Z,1014.61
2023-04-28T00:07:37.905Z,1014.63
2023-04-28T00:08:37.898Z,1014.64
2023-04-28T00:09:38.009Z,1014.65
2023-04-28T00:10:37.887Z,1014.63
2023-04-28T00:11:37.868Z,1014.66
2023-04-28T00:12:37.870Z,1014.72
2023-04-28T00:13:37.868Z,1014.63
2023-04-28T00:14:37.848Z,1014.66
2023-04-28T00:15:37.889Z,1014.66
2023-04-28T00:16:37.865Z,1014.66
2023-04-28T00:17:37.849Z,1014.62
2023-04-28T00:18:37.780Z,1014.63
2023-04-28T00:19:37.777Z,1014.66
2023-04-28T00:20:37.784Z,1014.67
2023-04-28T00:21:37.746Z,1014.63
2023-04-28T00:22:37.740Z,1014.63
2023-04-28T00:23:37.733Z,1014.63
2023-04-28T00:24:37.721Z,1014.60
2023-04-28T00:25:37.741Z,1014.61
2023-04-28T00:26:37.695Z,1014.58
2023-04-28T00:27:37.682Z,1014.55
2023-04-28T00:28:37.674Z,1014.54
2023-04-28T00:29:37.684Z,1014.54
2023-04-28T00:30:37.667Z,1014.52
2023-04-28T00:31:37.677Z,1014.51
2023-04-28T00:32:37.684Z,1014.53
2023-04-28T00:33:37.661Z,1014.52
2023-04-28T00:34:37.628Z,1014.54
2023-04-28T00:35:37.594Z,1014.50
2023-04-28T00:36:37.582Z,1014.53
2023-04-28T00:37:37.583Z,1014.50
2023-04-28T00:38:37.626Z,1014.53
2023-04-28T00:39:37.553Z,1014.50
2023-04-28T00:40:37.598Z,1014.46
2023-04-28T00:41:37.541Z,1014.48
2023-04-28T00:42:37.532Z,1014.48
2023-04-28T00:43:37.504Z,1014.49
2023-04-28T00:44:37.502Z,1014.50
2023-04-28T00:45:37.524Z,1014.50
2023-04-28T00:46:37.468Z,1014.46
2023-04-28T00:47:37.488Z,1014.41
2023-04-28T00:48:37.450Z,1014.43
2023-04-28T00:49:37.432Z,1014.44
2023-04-28T00:50:37.422Z,1014.43
2023-04-28T00:51:37.419Z,1014.38
2023-04-28T00:52:37.416Z,1014.40
2023-04-28T00:53:37.382Z,1014.36
2023-04-28T00:54:37.382Z,1014.37
2023-04-28T00:55:37.366Z,1014.39
2023-04-28T00:56:37.353Z,1014.40
2023-04-28T00:57:37.373Z,1014.38
2023-04-28T00:58:37.328Z,1014.35
2023-04-28T00:59:37.323Z,1014.37
2023-04-28T01:00:37.309Z,1014.38
2023-04-28T01:01:37.325Z,1014.40
2023-04-28T01:02:37.456Z,1014.38
2023-04-28T01:03:37.474Z,1014.34
2023-04-28T01:04:37.655Z,1014.34
2023-04-28T01:05:37.249Z,1014.32
2023-04-28T01:06:37.297Z,1014.30
2023-04-28T01:07:37.231Z,1014.28
2023-04-28T01:08:37.239Z,1014.29
2023-04-28T01:09:37.228Z,1014.31
2023-04-28T01:10:37.228Z,1014.34
2023-04-28T01:11:37.632Z,1014.31
2023-04-28T01:12:37.174Z,1014.30
2023-04-28T01:13:37.183Z,1014.30
2023-04-28T01:14:37.164Z,1014.33
2023-04-28T01:15:37.139Z,1014.28
2023-04-28T01:16:37.189Z,1014.24
2023-04-28T01:17:37.157Z,1014.22
2023-04-28T01:18:37.211Z,1014.21
2023-04-28T01:19:37.090Z,1014.18
2023-04-28T01:20:37.118Z,1014.19
2023-04-28T01:21:37.067Z,1014.20
2023-04-28T01:22:37.066Z,1014.23
2023-04-28T01:23:37.629Z,1014.15
2023-04-28T01:24:37.095Z,1014.19
2023-04-28T01:25:37.039Z,1014.19
2023-04-28T01:26:37.016Z,1014.14
2023-04-28T01:27:37.008Z,1014.15
2023-04-28T01:28:37.015Z,1014.13
2023-04-28T01:29:37.160Z,1014.11
2023-04-28T01:30:36.975Z,1014.08
2023-04-28T01:31:37.008Z,1014.11
2023-04-28T01:32:36.994Z,1014.15
2023-04-28T01:33:36.987Z,1014.10
2023-04-28T01:34:36.921Z,1014.12
2023-04-28T01:35:37.163Z,1014.11
2023-04-28T01:36:37.819Z,1014.13
2023-04-28T01:37:36.959Z,1014.12
2023-04-28T01:38:36.888Z,1014.13
2023-04-28T01:39:36.880Z,1014.11
2023-04-28T01:40:36.920Z,1014.09
2023-04-28T01:41:36.841Z,1014.15
2023-04-28T01:42:36.871Z,1014.05
2023-04-28T01:43:36.845Z,1014.08
2023-04-28T01:44:36.819Z,1014.06
2023-04-28T01:45:36.832Z,1014.09
2023-04-28T01:46:37.021Z,1014.06
2023-04-28T01:47:36.814Z,1014.07
2023-04-28T01:48:36.904Z,1014.07
2023-04-28T01:49:37.641Z,1014.07
2023-04-28T01:50:36.761Z,1014.06
2023-04-28T01:51:36.754Z,1014.04
2023-04-28T01:52:36.725Z,1014.03
2023-04-28T01:53:36.712Z,1014.07
2023-04-28T01:54:36.701Z,1014.04
2023-04-28T01:55:36.754Z,1014.02
2023-04-28T01:56:36.786Z,1013.99
2023-04-28T01:57:36.673Z,1014.00
2023-04-28T01:58:36.662Z,1013.97
2023-04-28T01:59:36.658Z,1013.93
2023-04-28T02:00:36.636Z,1013.96
2023-04-28T02:01:36.695Z,1013.96
2023-04-28T02:02:36.667Z,1013.94
2023-04-28T02:03:36.747Z,1013.96
2023-04-28T02:04:36.721Z,1013.95
2023-04-28T02:05:36.573Z,1013.94
2023-04-28T02:06:36.561Z,1013.95
2023-04-28T02:07:36.553Z,1013.96
2023-04-28T02:08:36.571Z,1013.91
2023-04-28T02:09:36.535Z,1013.97
2023-04-28T02:10:36.515Z,1013.95
2023-04-28T02:11:36.505Z,1013.99
2023-04-28T02:12:36.561Z,1013.93
2023-04-28T02:13:36.501Z,1013.95
2023-04-28T02:14:36.474Z,1014.01
2023-04-28T02:15:36.480Z,1013.97
2023-04-28T02:16:36.471Z,1014.01
2023-04-28T02:17:36.545Z,1014.00
2023-04-28T02:18:36.420Z,1013.97
2023-04-28T02:19:36.410Z,1014.00
2023-04-28T02:20:36.408Z,1013.94
2023-04-28T02:21:36.412Z,1013.92
2023-04-28T02:22:36.380Z,1013.96
2023-04-28T02:23:36.375Z,1013.95
2023-04-28T02:24:36.358Z,1013.94
2023-04-28T02:25:36.361Z,1013.94
2023-04-28T02:26:36.341Z,1013.91
2023-04-28T02:27:36.322Z,1013.93
2023-04-28T02:28:36.318Z,1013.91
2023-04-28T02:29:36.312Z,1013.90
2023-04-28T02:30:36.656Z,1013.87
2023-04-28T02:31:36.343Z,1013.91
2023-04-28T02:32:36.330Z,1013.91
2023-04-28T02:33:36.278Z,1013.94
2023-04-28T02:34:36.262Z,1013.90
2023-04-28T02:35:36.233Z,1013.88
2023-04-28T02:36:36.236Z,1013.87
2023-04-28T02:37:36.213Z,1013.87
2023-04-28T02:38:36.208Z,1013.86
2023-04-28T02:39:36.208Z,1013.85
2023-04-28T02:40:36.181Z,1013.84
2023-04-28T02:41:36.185Z,1013.84
2023-04-28T02:42:36.161Z,1013.81
2023-04-28T02:43:36.178Z,1013.80
2023-04-28T02:44:36.136Z,1013.79
2023-04-28T02:45:36.123Z,1013.76
2023-04-28T02:46:36.166Z,1013.73
2023-04-28T02:47:36.149Z,1013.70
2023-04-28T02:48:36.096Z,1013.72
2023-04-28T02:49:36.133Z,1013.66
2023-04-28T02:50:36.076Z,1013.72
2023-04-28T02:51:36.206Z,1013.72
2023-04-28T02:52:36.062Z,1013.67
2023-04-28T02:53:36.037Z,1013.69
2023-04-28T02:54:36.041Z,1013.72
2023-04-28T02:55:36.042Z,1013.72
2023-04-28T02:56:36.004Z,1013.71
2023-04-28T02:57:35.994Z,1013.71
2023-04-28T02:58:35.978Z,1013.71
2023-04-28T02:59:35.996Z,1013.76
2023-04-28T03:00:35.955Z,1013.68
2023-04-28T03:01:36.029Z,1013.74
2023-04-28T03:02:36.007Z,1013.75
2023-04-28T03:03:36.083Z,1013.75
2023-04-28T03:04:35.998Z,1013.71
2023-04-28T03:05:35.931Z,1013.71
2023-04-28T03:06:35.894Z,1013.72
2023-04-28T03:07:35.877Z,1013.73
2023-04-28T03:08:35.866Z,1013.67
2023-04-28T03:09:35.856Z,1013.69
2023-04-28T03:10:35.918Z,1013.70
2023-04-28T03:11:35.838Z,1013.66
2023-04-28T03:12:35.824Z,1013.62
2023-04-28T03:13:35.812Z,1013.64
2023-04-28T03:14:35.800Z,1013.66
2023-04-28T03:15:35.806Z,1013.63
2023-04-28T03:16:35.826Z,1013.60
2023-04-28T03:17:35.804Z,1013.65
2023-04-28T03:18:35.760Z,1013.64
2023-04-28T03:19:35.762Z,1013.69
2023-04-28T03:20:35.742Z,1013.60
2023-04-28T03:21:35.748Z,1013.58
2023-04-28T03:22:35.733Z,1013.59
2023-04-28T03:23:35.701Z,1013.60
2023-04-28T03:24:35.702Z,1013.56
2023-04-28T03:25:35.692Z,1013.59
2023-04-28T03:26:35.667Z,1013.56
2023-04-28T03:27:35.661Z,1013.58
2023-04-28T03:28:35.661Z,1013.56
2023-04-28T03:29:35.644Z,1013.57
2023-04-28T03:30:35.662Z,1013.55
2023-04-28T03:31:35.640Z,1013.52
2023-04-28T03:32:35.630Z,1013.49
2023-04-28T03:33:35.604Z,1013.47
2023-04-28T03:34:35.573Z,1013.46
2023-04-28T03:35:35.573Z,1013.46
2023-04-28T03:36:35.565Z,1013.45
2023-04-28T03:37:35.567Z,1013.43
2023-04-28T03:38:35.533Z,1013.45
2023-04-28T03:39:35.527Z,1013.41
2023-04-28T03:40:35.534Z,1013.43
2023-04-28T03:41:35.560Z,1013.41
2023-04-28T03:42:35.479Z,1013.42
2023-04-28T03:43:35.492Z,1013.42
2023-04-28T03:44:35.462Z,1013.43
2023-04-28T03:45:35.480Z,1013.39
2023-04-28T03:46:35.480Z,1013.44
2023-04-28T03:47:35.441Z,1013.44
2023-04-28T03:48:35.426Z,1013.45
2023-04-28T03:49:35.407Z,1013.45
2023-04-28T03:50:35.407Z,1013.41
2023-04-28T03:51:35.382Z,1013.43
2023-04-28T03:52:35.377Z,1013.39
2023-04-28T03:53:35.465Z,1013.45
2023-04-28T03:54:35.347Z,1013.42
2023-04-28T03:55:35.354Z,1013.41
2023-04-28T03:56:35.326Z,1013.40
2023-04-28T03:57:35.333Z,1013.40
2023-04-28T03:58:35.304Z,1013.41
2023-04-28T03:59:35.294Z,1013.35
2023-04-28T04:00:35.300Z,1013.34
2023-04-28T04:01:35.281Z,1013.37
2023-04-28T04:02:35.344Z,1013.32
2023-04-28T04:03:35.449Z,1013.27
2023-04-28T04:04:35.447Z,1013.29
2023-04-28T04:05:35.470Z,1013.27
2023-04-28T04:06:35.226Z,1013.28
2023-04-28T04:07:35.214Z,1013.23
2023-04-28T04:08:35.207Z,1013.29
2023-04-28T04:09:35.200Z,1013.23
2023-04-28T04:10:35.196Z,1013.24
2023-04-28T04:11:35.161Z,1013.25
2023-04-28T04:12:35.145Z,1013.24
2023-04-28T04:13:35.138Z,1013.23
2023-04-28T04:14:35.130Z,1013.20
2023-04-28T04:15:35.148Z,1013.21
2023-04-28T04:16:35.104Z,1013.23
2023-04-28T04:17:35.270Z,1013.24
2023-04-28T04:18:35.083Z,1013.21
2023-04-28T04:19:35.069Z,1013.23
2023-04-28T04:20:35.076Z,1013.23
2023-04-28T04:21:35.048Z,1013.26
2023-04-28T04:22:35.041Z,1013.25
2023-04-28T04:23:35.024Z,1013.24
2023-04-28T04:24:35.009Z,1013.27
2023-04-28T04:25:35.033Z,1013.32
2023-04-28T04:26:34.988Z,1013.30
2023-04-28T04:27:34.978Z,1013.30
2023-04-28T04:28:34.983Z,1013.24
2023-04-28T04:29:34.969Z,1013.26
2023-04-28T04:30:34.946Z,1013.22
2023-04-28T04:31:35.140Z,1013.21
2023-04-28T04:32:34.938Z,1013.18
2023-04-28T04:33:34.924Z,1013.14
2023-04-28T04:34:34.950Z,1013.16
2023-04-28T04:35:34.896Z,1013.15
2023-04-28T04:36:34.977Z,1013.19
2023-04-28T04:37:34.879Z,1013.15
2023-04-28T04:38:34.870Z,1013.18
2023-04-28T04:39:34.846Z,1013.14
2023-04-28T04:40:34.835Z,1013.09
2023-04-28T04:41:34.849Z,1013.09
2023-04-28T04:42:34.824Z,1013.09
2023-04-28T04:43:34.799Z,1013.12
2023-04-28T04:44:34.787Z,1013.12
2023-04-28T04:45:34.784Z,1013.11
2023-04-28T04:46:34.796Z,1013.08
2023-04-28T04:47:34.789Z,1013.07
2023-04-28T04:48:34.742Z,1013.03
2023-04-28T04:49:34.734Z,1013.04
2023-04-28T04:50:34.723Z,1013.01
2023-04-28T04:51:34.720Z,1013.07
2023-04-28T04:52:34.741Z,1013.01
2023-04-28T04:53:34.849Z,1012.98
2023-04-28T04:54:34.688Z,1013.02
2023-04-28T04:55:35.751Z,1013.02
2023-04-28T04:56:34.674Z,1013.02
2023-04-28T04:57:34.658Z,1013.04
2023-04-28T04:58:34.653Z,1013.04
2023-04-28T04:59:34.639Z,1013.04
2023-04-28T05:00:34.614Z,1012.98
2023-04-28T05:01:34.668Z,1012.94
2023-04-28T05:02:34.756Z,1012.96
2023-04-28T05:03:34.680Z,1012.92
2023-04-28T05:04:34.647Z,1012.93
2023-04-28T05:05:34.636Z,1012.94
2023-04-28T05:06:34.551Z,1012.92
2023-04-28T05:07:34.642Z,1012.89
2023-04-28T05:08:34.542Z,1012.92
2023-04-28T05:09:34.513Z,1012.92
2023-04-28T05:10:34.518Z,1012.93
2023-04-28T05:11:34.502Z,1012.94
2023-04-28T05:12:34.510Z,1012.91
2023-04-28T05:13:34.490Z,1012.88
2023-04-28T05:14:34.460Z,1012.91
2023-04-28T05:15:34.449Z,1012.80
2023-04-28T05:16:34.494Z,1012.84
2023-04-28T05:17:34.461Z,1012.81
2023-04-28T05:18:34.423Z,1012.83
2023-04-28T05:19:34.406Z,1012.81
2023-04-28T05:20:34.411Z,1012.74
2023-04-28T05:21:34.379Z,1012.77
2023-04-28T05:22:34.370Z,1012.76
2023-04-28T05:23:34.354Z,1012.80
2023-04-28T05:24:34.385Z,1012.80
2023-04-28T05:25:34.349Z,1012.77
2023-04-28T05:26:34.478Z,1012.79
2023-04-28T05:27:34.320Z,1012.83
2023-04-28T05:28:34.337Z,1012.80
2023-04-28T05:29:34.322Z,1012.81
2023-04-28T05:30:34.281Z,1012.87
2023-04-28T05:31:34.309Z,1012.82
2023-04-28T05:32:34.302Z,1012.83
2023-04-28T05:33:34.269Z,1012.80
2023-04-28T05:34:34.244Z,1012.77
2023-04-28T05:35:34.228Z,1012.79
2023-04-28T05:36:34.209Z,1012.75
2023-04-28T05:37:34.213Z,1012.74
2023-04-28T05:38:34.190Z,1012.74
2023-04-28T05:39:34.201Z,1012.71
2023-04-28T05:40:34.163Z,1012.68
2023-04-28T05:41:34.302Z,1012.69
2023-04-28T05:42:34.145Z,1012.71
2023-04-28T05:43:34.135Z,1012.71
2023-04-28T05:44:34.148Z,1012.66
2023-04-28T05:45:34.145Z,1012.72
2023-04-28T05:46:34.142Z,1012.62
2023-04-28T05:47:34.111Z,1012.57
2023-04-28T05:48:34.088Z,1012.53
2023-04-28T05:49:34.069Z,1012.58
2023-04-28T05:50:34.105Z,1012.51
2023-04-28T05:51:34.074Z,1012.51
2023-04-28T05:52:34.085Z,1012.52
2023-04-28T05:53:34.028Z,1012.54
2023-04-28T05:54:34.007Z,1012.55
2023-04-28T05:55:34.020Z,1012.58
2023-04-28T05:56:33.989Z,1012.59
2023-04-28T05:57:42.185Z,1012.60
2023-04-28T05:58:34.965Z,1012.51
2023-04-28T05:59:33.985Z,1012.53
2023-04-28T06:00:33.944Z,1012.50
2023-04-28T06:01:33.961Z,1012.54
2023-04-28T06:02:34.056Z,1012.51
2023-04-28T06:03:34.103Z,1012.48
2023-04-28T06:04:34.136Z,1012.46
2023-04-28T06:05:34.297Z,1012.49
2023-04-28T06:06:33.877Z,1012.49
2023-04-28T06:07:33.872Z,1012.41
2023-04-28T06:08:33.876Z,1012.46
2023-04-28T06:09:34.181Z,1012.45
2023-04-28T06:10:33.835Z,1012.42
2023-04-28T06:11:33.824Z,1012.46
2023-04-28T06:12:33.811Z,1012.46
2023-04-28T06:13:33.821Z,1012.44
2023-04-28T06:14:33.791Z,1012.45
2023-04-28T06:15:33.813Z,1012.37
2023-04-28T06:16:33.937Z,1012.38
2023-04-28T06:17:33.806Z,1012.47
2023-04-28T06:18:33.742Z,1012.35
2023-04-28T06:19:33.746Z,1012.40
2023-04-28T06:20:33.721Z,1012.35
2023-04-28T06:21:33.795Z,1012.36
2023-04-28T06:22:33.711Z,1012.36
2023-04-28T06:23:33.689Z,1012.42
2023-04-28T06:24:33.700Z,1012.32
2023-04-28T06:25:33.686Z,1012.32
2023-04-28T06:26:33.657Z,1012.31
2023-04-28T06:27:33.664Z,1012.25
2023-04-28T06:28:33.631Z,1012.24
2023-04-28T06:29:33.623Z,1012.26
2023-04-28T06:30:33.608Z,1012.25
2023-04-28T06:31:33.644Z,1012.19
2023-04-28T06:32:33.608Z,1012.17
2023-04-28T06:33:33.600Z,1012.19
2023-04-28T06:34:33.563Z,1012.24
2023-04-28T06:35:33.783Z,1012.17
2023-04-28T06:36:33.557Z,1012.21
2023-04-28T06:37:33.541Z,1012.18
2023-04-28T06:38:33.518Z,1012.14
2023-04-28T06:39:33.514Z,1012.20
2023-04-28T06:40:33.496Z,1012.13
2023-04-28T06:41:33.502Z,1012.14
2023-04-28T06:42:33.476Z,1012.06
2023-04-28T06:43:33.494Z,1012.10
2023-04-28T06:44:34.813Z,1012.09
2023-04-28T06:45:33.441Z,1012.11
2023-04-28T06:46:33.471Z,1012.13
2023-04-28T06:47:33.459Z,1012.17
2023-04-28T06:48:33.402Z,1012.08
2023-04-28T06:49:33.485Z,1012.08
2023-04-28T06:50:33.388Z,1012.12
2023-04-28T06:51:33.371Z,1012.08
2023-04-28T06:52:39.040Z,1012.08
2023-04-28T06:53:34.355Z,1012.17
2023-04-28T06:54:33.353Z,1012.07
2023-04-28T06:55:33.325Z,1011.98
2023-04-28T06:56:33.421Z,1011.99
2023-04-28T06:58:35.698Z,1011.92
2023-04-28T06:59:35.723Z,1011.95
2023-04-28T07:00:35.711Z,1011.79
2023-04-28T07:01:35.666Z,1011.84
2023-04-28T07:02:35.801Z,1011.77
2023-04-28T07:03:35.776Z,1011.88
2023-04-28T07:04:35.648Z,1011.88
2023-04-28T07:05:36.542Z,1011.86
2023-04-28T07:06:35.613Z,1011.85
2023-04-28T07:07:35.598Z,1011.88
2023-04-28T07:08:35.589Z,1011.78
2023-04-28T07:09:35.591Z,1011.80
2023-04-28T07:10:35.567Z,1011.80
2023-04-28T07:11:35.629Z,1011.84
2023-04-28T07:12:35.572Z,1011.90
2023-04-28T07:13:35.549Z,1011.91
2023-04-28T07:14:35.539Z,1011.77
2023-04-28T07:15:35.513Z,1011.82
2023-04-28T07:16:35.537Z,1011.89
2023-04-28T07:17:35.526Z,1011.76
2023-04-28T07:18:35.492Z,1011.80
2023-04-28T07:19:35.537Z,1011.70
2023-04-28T07:20:35.458Z,1011.75
2023-04-28T07:21:35.457Z,1011.78
2023-04-28T07:22:35.439Z,1011.80
2023-04-28T07:23:35.435Z,1011.75
2023-04-28T07:24:35.937Z,1011.81
2023-04-28T07:25:35.417Z,1011.77
2023-04-28T07:26:35.389Z,1011.77
2023-04-28T07:27:35.396Z,1011.81
2023-04-28T07:28:35.379Z,1011.81
2023-04-28T07:29:35.386Z,1011.75
2023-04-28T07:30:35.347Z,1011.75
2023-04-28T07:31:35.396Z,1011.77
2023-04-28T07:32:35.377Z,1011.78
2023-04-28T07:33:35.310Z,1011.65
2023-04-28T07:34:35.297Z,1011.66
2023-04-28T07:35:35.313Z,1011.68
2023-04-28T07:36:35.293Z,1011.70
2023-04-28T07:37:35.301Z,1011.67
2023-04-28T07:38:35.276Z,1011.72
2023-04-28T07:39:35.444Z,1011.66
2023-04-28T07:40:35.244Z,1011.76
2023-04-28T07:41:35.223Z,1011.70
2023-04-28T07:42:35.218Z,1011.62
2023-04-28T07:43:35.217Z,1011.64
2023-04-28T07:44:35.200Z,1011.59
2023-04-28T07:45:35.202Z,1011.60
2023-04-28T07:46:35.307Z,1011.57
2023-04-28T07:47:35.206Z,1011.66
2023-04-28T07:48:35.141Z,1011.64
2023-04-28T07:49:35.128Z,1011.48
2023-04-28T07:50:35.155Z,1011.51
2023-04-28T07:51:35.122Z,1011.58
2023-04-28T07:52:35.108Z,1011.55
2023-04-28T07:53:35.106Z,1011.57
2023-04-28T07:54:36.967Z,1011.51
2023-04-28T07:55:35.929Z,1011.57
2023-04-28T07:56:35.066Z,1011.52
2023-04-28T07:57:35.219Z,1011.53
2023-04-28T07:58:35.044Z,1011.51
2023-04-28T07:59:35.028Z,1011.55
2023-04-28T08:00:35.020Z,1011.44
2023-04-28T08:01:34.999Z,1011.60
2023-04-28T08:02:35.107Z,1011.52
2023-04-28T08:03:35.340Z,1011.39
2023-04-28T08:04:35.185Z,1011.42
2023-04-28T08:05:34.988Z,1011.43
2023-04-28T08:06:34.944Z,1011.47
2023-04-28T08:07:34.934Z,1011.40
2023-04-28T08:08:34.922Z,1011.46
2023-04-28T08:09:35.548Z,1011.44
2023-04-28T08:10:34.913Z,1011.38
2023-04-28T08:11:34.958Z,1011.40
2023-04-28T08:12:34.884Z,1011.35
2023-04-28T08:13:34.868Z,1011.48
2023-04-28T08:14:34.920Z,1011.55
2023-04-28T08:15:34.877Z,1011.47
2023-04-28T08:16:34.832Z,1011.45
2023-04-28T08:17:34.848Z,1011.59
2023-04-28T08:18:34.863Z,1011.52
2023-04-28T08:19:34.856Z,1011.42
2023-04-28T08:20:34.793Z,1011.46
2023-04-28T08:21:34.776Z,1011.52
2023-04-28T08:22:34.778Z,1011.49
2023-04-28T08:23:34.758Z,1011.42
2023-04-28T08:24:34.815Z,1011.39
2023-04-28T08:25:34.770Z,1011.49
2023-04-28T08:26:34.755Z,1011.50
2023-04-28T08:27:34.727Z,1011.43
2023-04-28T08:28:34.712Z,1011.45
2023-04-28T08:29:34.690Z,1011.45
2023-04-28T08:30:34.693Z,1011.49
2023-04-28T08:31:34.763Z,1011.47
2023-04-28T08:32:34.668Z,1011.40
2023-04-28T08:33:34.648Z,1011.44
2023-04-28T08:34:34.633Z,1011.51
2023-04-28T08:35:34.658Z,1011.54
2023-04-28T08:36:34.615Z,1011.52
2023-04-28T08:37:34.602Z,1011.44
2023-04-28T08:38:34.589Z,1011.44
2023-04-28T08:39:34.595Z,1011.39
2023-04-28T08:40:34.620Z,1011.43
2023-04-28T08:41:34.574Z,1011.34
2023-04-28T08:42:34.552Z,1011.31
2023-04-28T08:43:34.554Z,1011.34
2023-04-28T08:44:34.529Z,1011.29
2023-04-28T08:45:34.513Z,1011.28
2023-04-28T08:46:34.552Z,1011.26
2023-04-28T08:47:34.536Z,1011.25
2023-04-28T08:48:34.487Z,1011.21
2023-04-28T08:49:34.476Z,1011.26
2023-04-28T08:50:34.501Z,1011.16
2023-04-28T08:51:34.465Z,1011.15
2023-04-28T08:52:34.461Z,1011.24
2023-04-28T08:53:39.514Z,1011.24
2023-04-28T08:54:35.737Z,1011.18
2023-04-28T08:55:34.420Z,1011.24
2023-04-28T08:56:34.426Z,1011.20
2023-04-28T08:57:34.606Z,1011.21
2023-04-28T08:58:34.379Z,1011.08
2023-04-28T08:59:34.389Z,1011.24
2023-04-28T09:00:34.393Z,1011.26
2023-04-28T09:01:34.413Z,1011.13
2023-04-28T09:02:34.523Z,1011.25
2023-04-28T09:03:34.507Z,1011.16
2023-04-28T09:04:34.798Z,1011.08
2023-04-28T09:05:34.429Z,1011.15
2023-04-28T09:06:34.287Z,1011.05
2023-04-28T09:07:34.286Z,1011.06
2023-04-28T09:08:34.306Z,1010.99
2023-04-28T09:09:37.018Z,1010.88
2023-04-28T09:10:34.250Z,1010.92
2023-04-28T09:11:34.291Z,1010.90
2023-04-28T09:12:34.225Z,1010.97
2023-04-28T09:13:34.232Z,1010.91
2023-04-28T09:14:34.227Z,1010.87
2023-04-28T09:15:34.260Z,1010.83
2023-04-28T09:16:34.224Z,1010.90
2023-04-28T09:17:34.186Z,1010.93
2023-04-28T09:18:34.484Z,1010.82
2023-04-28T09:19:34.169Z,1010.80
2023-04-28T09:20:34.153Z,1010.83
2023-04-28T09:21:34.154Z,1010.84
2023-04-28T09:22:34.155Z,1010.74
2023-04-28T09:23:34.136Z,1010.75
2023-04-28T09:24:34.112Z,1010.75
2023-04-28T09:25:34.087Z,1010.80
2023-04-28T09:26:34.078Z,1010.74
2023-04-28T09:27:34.072Z,1010.72
2023-04-28T09:28:34.077Z,1010.71
2023-04-28T09:29:34.148Z,1010.65
2023-04-28T09:30:34.058Z,1010.71
2023-04-28T09:31:34.070Z,1010.68
2023-04-28T09:32:34.095Z,1010.72
2023-04-28T09:33:34.009Z,1010.75
2023-04-28T09:34:34.009Z,1010.63
2023-04-28T09:35:33.995Z,1010.61
2023-04-28T09:36:33.990Z,1010.61
2023-04-28T09:37:33.975Z,1010.59
2023-04-28T09:38:33.956Z,1010.56
2023-04-28T09:39:33.986Z,1010.62
2023-04-28T09:40:33.940Z,1010.46
2023-04-28T09:41:33.994Z,1010.50
2023-04-28T09:42:33.912Z,1010.49
2023-04-28T09:43:33.910Z,1010.58
2023-04-28T09:44:34.088Z,1010.57
2023-04-28T09:45:33.933Z,1010.56
2023-04-28T09:46:33.930Z,1010.57
2023-04-28T09:47:33.876Z,1010.54
2023-04-28T09:48:33.889Z,1010.41
2023-04-28T09:49:33.838Z,1010.41
2023-04-28T09:50:33.828Z,1010.40
2023-04-28T09:51:33.819Z,1010.32
2023-04-28T09:52:33.804Z,1010.45
2023-04-28T09:53:33.828Z,1010.42
2023-04-28T09:54:33.783Z,1010.44
2023-04-28T09:55:33.774Z,1010.49
2023-04-28T09:56:33.835Z,1010.38
2023-04-28T09:57:33.802Z,1010.43
2023-04-28T09:58:33.741Z,1010.45
2023-04-28T09:59:33.730Z,1010.43
2023-04-28T10:00:33.731Z,1010.48
2023-04-28T10:01:33.865Z,1010.52
2023-04-28T10:02:43.195Z,1010.40
2023-04-28T10:03:34.953Z,1010.42
2023-04-28T10:04:33.967Z,1010.47
2023-04-28T10:05:33.867Z,1010.42
2023-04-28T10:06:33.658Z,1010.41
2023-04-28T10:07:33.643Z,1010.40
2023-04-28T10:08:33.734Z,1010.36
2023-04-28T10:09:33.624Z,1010.35
2023-04-28T10:10:33.621Z,1010.38
2023-04-28T10:11:33.620Z,1010.32
2023-04-28T10:12:33.615Z,1010.39
2023-04-28T10:13:33.954Z,1010.39
2023-04-28T10:14:33.569Z,1010.39
2023-04-28T10:15:33.617Z,1010.36
2023-04-28T10:16:33.563Z,1010.37
2023-04-28T10:17:33.607Z,1010.35
2023-04-28T10:18:34.567Z,1010.34
2023-04-28T10:19:33.552Z,1010.30
2023-04-28T10:20:33.517Z,1010.28
2023-04-28T10:21:33.498Z,1010.32
2023-04-28T10:22:33.486Z,1010.23
2023-04-28T10:23:33.494Z,1010.32
2023-04-28T10:24:33.474Z,1010.29
2023-04-28T10:25:33.459Z,1010.34
2023-04-28T10:26:33.461Z,1010.27
2023-04-28T10:27:33.456Z,1010.28
2023-04-28T10:28:33.438Z,1010.18
2023-04-28T10:29:33.428Z,1010.14
2023-04-28T10:30:33.412Z,1010.05
2023-04-28T10:31:33.427Z,1010.03
2023-04-28T10:32:33.504Z,1010.06
2023-04-28T10:33:33.391Z,1010.14
2023-04-28T10:34:33.380Z,1010.07
2023-04-28T10:35:33.355Z,1009.99
2023-04-28T10:36:36.269Z,1010.02
2023-04-28T10:37:33.335Z,1009.95
2023-04-28T10:38:33.326Z,1009.94
2023-04-28T10:39:33.312Z,1009.94
2023-04-28T10:40:33.301Z,1009.87
2023-04-28T10:41:33.310Z,1009.92
2023-04-28T10:42:33.283Z,1009.94
2023-04-28T10:43:33.268Z,1009.91
2023-04-28T10:44:33.256Z,1009.84
2023-04-28T10:45:35.101Z,1009.78
2023-04-28T10:46:33.291Z,1009.86
2023-04-28T10:47:33.313Z,1009.76
2023-04-28T10:48:33.220Z,1009.92
2023-04-28T10:49:33.226Z,1009.85
2023-04-28T10:50:39.123Z,1009.77
2023-04-28T10:51:34.221Z,1009.82
2023-04-28T10:52:33.178Z,1009.90
2023-04-28T10:53:33.190Z,1009.83
2023-04-28T10:54:33.155Z,1009.84
2023-04-28T10:55:33.183Z,1009.84
2023-04-28T10:56:33.134Z,1009.89
2023-04-28T10:57:33.154Z,1009.90
2023-04-28T10:58:33.238Z,1009.73
2023-04-28T10:59:33.111Z,1009.77
2023-04-28T11:00:33.177Z,1009.82
2023-04-28T11:01:33.095Z,1009.84
2023-04-28T11:02:33.308Z,1009.74
2023-04-28T11:03:33.337Z,1009.72
2023-04-28T11:04:33.272Z,1009.67
2023-04-28T11:05:33.098Z,1009.59
2023-04-28T11:06:33.036Z,1009.52
2023-04-28T11:07:33.033Z,1009.70
2023-04-28T11:08:33.013Z,1009.60
2023-04-28T11:09:33.013Z,1009.55
2023-04-28T11:10:32.991Z,1009.53
2023-04-28T11:11:32.983Z,1009.66
2023-04-28T11:12:32.982Z,1009.69
2023-04-28T11:13:32.966Z,1009.62
2023-04-28T11:14:32.981Z,1009.53
2023-04-28T11:15:32.949Z,1009.54
2023-04-28T11:16:32.961Z,1009.70
2023-04-28T11:17:32.950Z,1009.68
2023-04-28T11:18:32.909Z,1009.67
2023-04-28T11:19:32.910Z,1009.52
2023-04-28T11:20:32.886Z,1009.65
2023-04-28T11:21:32.889Z,1009.54
2023-04-28T11:22:32.885Z,1009.47
2023-04-28T11:23:32.853Z,1009.49
2023-04-28T11:24:32.870Z,1009.31
2023-04-28T11:25:32.835Z,1009.36
2023-04-28T11:26:32.858Z,1009.33
2023-04-28T11:27:32.824Z,1009.30
2023-04-28T11:28:32.806Z,1009.32
2023-04-28T11:29:32.802Z,1009.29
2023-04-28T11:30:32.810Z,1009.34
2023-04-28T11:31:32.783Z,1009.32
2023-04-28T11:32:32.816Z,1009.33
2023-04-28T11:33:32.881Z,1009.33
2023-04-28T11:34:32.769Z,1009.35
2023-04-28T11:35:32.723Z,1009.24
2023-04-28T11:36:32.739Z,1009.32
2023-04-28T11:37:32.840Z,1009.28
2023-04-28T11:38:32.744Z,1009.30
2023-04-28T11:39:32.706Z,1009.21
2023-04-28T11:40:32.683Z,1009.21
2023-04-28T11:41:32.666Z,1009.13
2023-04-28T11:42:32.659Z,1009.23
2023-04-28T11:43:46.118Z,1009.24
2023-04-28T11:44:33.627Z,1009.21
2023-04-28T11:45:32.675Z,1009.20
2023-04-28T11:46:32.607Z,1009.28
2023-04-28T11:47:33.078Z,1009.18
2023-04-28T11:48:32.582Z,1009.23
2023-04-28T11:49:32.626Z,1009.23
2023-04-28T11:50:32.557Z,1009.18
2023-04-28T11:51:32.556Z,1009.24
2023-04-28T11:52:32.544Z,1009.21
2023-04-28T11:53:32.546Z,1009.13
2023-04-28T11:54:32.568Z,1009.13
2023-04-28T11:55:32.517Z,1009.09
2023-04-28T11:56:32.501Z,1009.11
2023-04-28T11:57:32.536Z,1009.10
2023-04-28T11:58:32.497Z,1009.09
2023-04-28T11:59:32.502Z,1009.09
2023-04-28T12:00:32.468Z,1009.07
2023-04-28T12:01:32.441Z,1009.03
2023-04-28T12:02:32.517Z,1008.98
2023-04-28T12:03:32.593Z,1009.03
2023-04-28T12:04:32.415Z,1009.08
2023-04-28T12:05:32.421Z,1009.00
2023-04-28T12:06:32.388Z,1009.06